Aviation Digital Data Service (ADDS)

Output produced by METARs form (1810 UTC 18 April 2014)
found at http://aviationweather.gov/adds/metars/
 
KCLE 181724Z 1818/1924 02008KT P6SM SCT080 
     FM190400 03006KT P6SM BKN028 
     FM191200 04008KT P6SM SCT030